Terminal Aerodrome Forecast
Issued by NWS Columbia, SC

Home | Current Version | Previous Version | Text Only | Print | Product List | Glossary On
Versions: 1 2 3 4 5 6 7 8 9 10 11 12 13 14 15 16 17 18 19 20 21 22 23 24 25 26 27 28 29 30 31 32 33 34 35 36 37 38 39 40 41 42
000
FTAK31 PAJN 281300 AAA
TAFAGS
TAF AMD
PAGS 281359Z 2814/2912 34005KT 3SM -SN BR OVC015
     FM282000 33004KT 3SM -SN SCT007 OVC015 WS020/12025KT
     FM282300 31004KT 6SM -SNRA BR OVC015 WS020/12025KT
     FM290300 VRB05KT 6SM -RA BR OVC015 WS020/12025KT
      AMD LTD TO CLD VIS AND WIND=

USA.gov is the U.S. government's official web portal to all federal, state and local government web resources and services.